createdAt,value
2018-03-07T00:01:42.799Z,28.23
2018-03-07T00:04:46.409Z,31.37
2018-03-07T00:07:49.789Z,29.58
2018-03-07T00:10:54.010Z,28.45
2018-03-07T00:13:57.392Z,31.73
2018-03-07T00:17:00.808Z,29.05
2018-03-07T00:20:04.242Z,28.98
2018-03-07T00:23:07.513Z,29.77
2018-03-07T00:26:11.017Z,28.27
2018-03-07T00:29:14.490Z,30.65
2018-03-07T00:32:17.921Z,29.37
2018-03-07T00:35:21.277Z,29.05
2018-03-07T00:38:24.616Z,28.15
2018-03-07T00:41:28.023Z,29.02
2018-03-07T00:44:31.462Z,29.00
2018-03-07T00:47:34.845Z,27.10
2018-03-07T00:50:38.249Z,26.70
2018-03-07T00:53:41.737Z,28.35
2018-03-07T00:56:45.422Z,26.33
2018-03-07T00:59:49.042Z,28.52
2018-03-07T01:02:52.414Z,29.48
2018-03-07T01:05:55.890Z,28.38
2018-03-07T01:08:59.381Z,27.77
2018-03-07T01:12:02.812Z,30.62
2018-03-07T01:15:07.232Z,27.42
2018-03-07T01:18:11.457Z,30.08
2018-03-07T01:21:16.611Z,29.12
2018-03-07T01:24:20.027Z,30.23
2018-03-07T01:27:23.427Z,30.83
2018-03-07T01:30:26.819Z,30.30
2018-03-07T01:33:31.531Z,30.00
2018-03-07T01:36:35.197Z,31.27
2018-03-07T01:39:38.679Z,32.15
2018-03-07T01:42:43.398Z,29.48
2018-03-07T01:45:47.696Z,30.15
2018-03-07T01:48:51.310Z,31.80
2018-03-07T01:52:01.771Z,30.42
2018-03-07T01:55:05.995Z,31.10
2018-03-07T01:58:09.424Z,29.77
2018-03-07T02:01:12.844Z,30.52
2018-03-07T02:04:16.270Z,30.60
2018-03-07T02:07:20.493Z,33.75
2018-03-07T02:28:52.343Z,33.92
2018-03-07T02:31:55.851Z,31.83
2018-03-07T02:34:59.321Z,30.12
2018-03-07T02:38:03.623Z,30.60
2018-03-07T02:41:07.080Z,29.35
2018-03-07T02:44:10.496Z,31.25
2018-03-07T02:47:14.733Z,30.15
2018-03-07T02:50:18.114Z,30.88
2018-03-07T02:53:21.436Z,29.98
2018-03-07T02:56:24.779Z,28.58
2018-03-07T02:59:28.159Z,30.52
2018-03-07T03:02:32.124Z,30.33
2018-03-07T03:05:36.202Z,32.15
2018-03-07T03:08:39.724Z,28.73
2018-03-07T03:11:45.075Z,33.45
2018-03-07T03:14:48.515Z,32.15
2018-03-07T03:17:52.208Z,32.28
2018-03-07T03:20:55.635Z,31.52
2018-03-07T03:23:59.098Z,31.52
2018-03-07T03:27:02.523Z,29.12
2018-03-07T03:30:05.786Z,29.45
2018-03-07T03:33:09.084Z,31.08
2018-03-07T03:36:12.406Z,28.73
2018-03-07T03:39:15.910Z,29.90
2018-03-07T03:42:19.315Z,31.05
2018-03-07T03:45:23.686Z,27.13
2018-03-07T03:48:27.235Z,27.35
2018-03-07T03:51:30.654Z,28.40
2018-03-07T03:54:34.284Z,27.13
2018-03-07T03:57:38.206Z,25.37
2018-03-07T04:00:41.612Z,30.45
2018-03-07T04:03:45.869Z,30.20
2018-03-07T04:06:50.208Z,32.00
2018-03-07T04:09:53.809Z,31.42
2018-03-07T04:12:57.210Z,29.73
2018-03-07T04:16:01.374Z,28.25
2018-03-07T04:19:10.946Z,29.33
2018-03-07T04:22:15.120Z,30.25
2018-03-07T04:25:18.590Z,33.55
2018-03-07T04:28:22.023Z,31.10
2018-03-07T04:31:25.463Z,27.80
2018-03-07T04:34:28.866Z,28.85
2018-03-07T04:37:33.093Z,29.48
2018-03-07T04:40:37.333Z,28.65
2018-03-07T04:43:40.786Z,30.05
2018-03-07T04:46:45.065Z,31.85
2018-03-07T04:49:48.593Z,27.35
2018-03-07T04:52:51.895Z,28.15
2018-03-07T04:55:55.475Z,30.08
2018-03-07T04:58:59.217Z,29.50
2018-03-07T05:02:02.638Z,29.42
2018-03-07T05:05:06.084Z,30.75
2018-03-07T05:08:09.572Z,29.27
2018-03-07T05:11:13.044Z,31.80
2018-03-07T05:14:16.531Z,30.05
2018-03-07T05:17:19.916Z,30.48
2018-03-07T05:20:24.104Z,32.28
2018-03-07T05:23:27.575Z,30.90
2018-03-07T05:26:32.083Z,31.92
2018-03-07T05:29:36.297Z,27.00
2018-03-07T05:32:39.728Z,31.20
2018-03-07T05:35:43.234Z,31.02
2018-03-07T05:38:46.596Z,32.30
2018-03-07T05:41:50.707Z,32.40
2018-03-07T05:44:54.839Z,33.53
2018-03-07T05:47:58.291Z,36.88
2018-03-07T05:51:01.746Z,31.45
2018-03-07T05:54:05.958Z,30.42
2018-03-07T05:57:10.375Z,27.67
2018-03-07T06:00:13.782Z,26.42
2018-03-07T06:03:17.223Z,28.48
2018-03-07T06:06:20.794Z,29.30
2018-03-07T06:09:24.213Z,30.17
2018-03-07T06:12:27.647Z,28.38
2018-03-07T06:15:31.089Z,39.80
2018-03-07T06:18:34.537Z,33.03
2018-03-07T06:21:38.025Z,33.50
2018-03-07T06:24:41.466Z,31.27
2018-03-07T06:27:45.652Z,28.30
2018-03-07T06:30:49.339Z,31.48
2018-03-07T06:33:52.768Z,29.60
2018-03-07T06:36:56.252Z,30.65
2018-03-07T06:40:00.426Z,30.40
2018-03-07T06:43:03.906Z,29.95
2018-03-07T06:46:08.074Z,30.88
2018-03-07T06:49:12.368Z,28.65
2018-03-07T06:52:15.967Z,31.77
2018-03-07T06:55:19.493Z,29.52
2018-03-07T06:58:22.944Z,30.98
2018-03-07T07:01:26.405Z,29.45
2018-03-07T07:04:29.774Z,31.55
2018-03-07T07:07:34.047Z,32.38
2018-03-07T07:10:38.589Z,31.65
2018-03-07T07:13:42.778Z,32.03
2018-03-07T07:16:47.098Z,32.08
2018-03-07T07:19:51.265Z,30.98
2018-03-07T07:22:54.700Z,33.58
2018-03-07T07:25:58.124Z,33.10
2018-03-07T07:29:01.595Z,31.30
2018-03-07T07:32:05.063Z,30.45
2018-03-07T07:35:09.361Z,32.05
2018-03-07T07:38:12.910Z,32.00
2018-03-07T07:41:16.269Z,31.58
2018-03-07T07:44:19.697Z,27.02
2018-03-07T07:47:23.199Z,28.67
2018-03-07T07:50:27.420Z,28.30
2018-03-07T07:53:31.529Z,31.20
2018-03-07T07:56:35.761Z,28.35
2018-03-07T07:59:39.178Z,27.85
2018-03-07T08:02:42.652Z,30.83
2018-03-07T08:05:46.080Z,26.83
2018-03-07T08:08:49.654Z,26.15
2018-03-07T08:11:53.848Z,27.15
2018-03-07T08:14:57.210Z,25.15
2018-03-07T08:18:00.688Z,26.55
2018-03-07T08:21:04.914Z,25.85
2018-03-07T08:24:08.327Z,24.12
2018-03-07T08:27:11.945Z,26.25
2018-03-07T08:30:15.446Z,25.85
2018-03-07T08:33:18.865Z,24.92
2018-03-07T08:36:22.335Z,26.23
2018-03-07T08:39:25.803Z,25.60
2018-03-07T08:42:29.306Z,24.40
2018-03-07T08:45:32.819Z,25.52
2018-03-07T08:48:36.217Z,22.75
2018-03-07T08:51:39.688Z,23.95
2018-03-07T08:54:43.144Z,22.80
2018-03-07T08:57:47.364Z,21.92
2018-03-07T09:00:50.665Z,19.60
2018-03-07T09:03:54.017Z,20.60
2018-03-07T09:06:57.403Z,19.37
2018-03-07T09:10:00.804Z,19.75
2018-03-07T09:13:05.074Z,18.15
2018-03-07T09:16:08.576Z,16.02
2018-03-07T09:19:12.694Z,16.70
2018-03-07T09:22:16.222Z,15.15
2018-03-07T09:25:19.616Z,15.13
2018-03-07T09:28:23.896Z,12.52
2018-03-07T09:31:27.193Z,13.15
2018-03-07T09:34:30.550Z,12.80
2018-03-07T09:37:34.724Z,12.73
2018-03-07T09:40:38.053Z,12.45
2018-03-07T09:43:41.435Z,11.85
2018-03-07T09:46:44.800Z,11.65
2018-03-07T09:49:48.919Z,12.77
2018-03-07T09:52:52.289Z,14.33
2018-03-07T09:55:56.404Z,13.57
2018-03-07T09:59:00.647Z,14.07
2018-03-07T10:02:04.027Z,13.67
2018-03-07T10:05:07.398Z,13.17
2018-03-07T10:08:10.992Z,13.83
2018-03-07T10:11:14.359Z,13.53
2018-03-07T10:14:17.794Z,14.23
2018-03-07T10:17:21.316Z,14.70
2018-03-07T10:20:25.424Z,15.17
2018-03-07T10:23:29.778Z,16.67
2018-03-07T10:26:33.330Z,16.07
2018-03-07T10:29:36.744Z,16.37
2018-03-07T10:32:40.094Z,15.63
2018-03-07T10:35:44.531Z,17.33
2018-03-07T10:38:47.967Z,16.63
2018-03-07T10:41:51.373Z,16.70
2018-03-07T10:44:54.810Z,18.20
2018-03-07T10:47:59.038Z,15.90
2018-03-07T10:51:03.147Z,18.77
2018-03-07T10:54:07.247Z,20.33
2018-03-07T10:57:10.758Z,17.30
2018-03-07T11:00:29.664Z,17.93
2018-03-07T11:03:32.987Z,18.77
2018-03-07T11:06:36.342Z,18.33
2018-03-07T11:09:39.663Z,17.53
2018-03-07T11:12:43.019Z,17.53
2018-03-07T11:15:46.522Z,17.60
2018-03-07T11:18:50.216Z,16.97
2018-03-07T11:21:53.723Z,16.80
2018-03-07T11:28:06.879Z,15.60
2018-03-07T11:31:10.511Z,16.40
2018-03-07T11:34:13.961Z,15.47
2018-03-07T11:37:17.503Z,15.80
2018-03-07T11:40:20.910Z,15.50
2018-03-07T11:43:24.428Z,14.70
2018-03-07T11:46:27.861Z,13.80
2018-03-07T11:49:31.479Z,13.93
2018-03-07T11:52:34.895Z,14.70
2018-03-07T11:55:38.406Z,12.43
2018-03-07T11:58:41.884Z,12.13
2018-03-07T12:01:45.316Z,11.90
2018-03-07T12:04:48.744Z,11.50
2018-03-07T12:07:53.018Z,9.77
2018-03-07T12:10:56.491Z,9.60
2018-03-07T12:13:59.957Z,9.80
2018-03-07T12:17:03.486Z,9.40
2018-03-07T12:20:06.971Z,8.73
2018-03-07T12:23:11.215Z,9.03
2018-03-07T12:26:14.752Z,8.47
2018-03-07T12:29:18.222Z,6.43
2018-03-07T12:32:21.687Z,6.43
2018-03-07T12:35:25.182Z,6.93
2018-03-07T12:38:28.621Z,5.93
2018-03-07T12:41:32.073Z,5.90
2018-03-07T12:44:36.310Z,6.50
2018-03-07T12:47:40.645Z,6.57
2018-03-07T12:50:44.810Z,6.40
2018-03-07T12:53:48.299Z,5.93
2018-03-07T12:56:51.697Z,5.77
2018-03-07T12:59:55.180Z,5.70
2018-03-07T13:02:58.749Z,5.83
2018-03-07T13:06:02.942Z,6.23
2018-03-07T13:09:06.369Z,5.53
2018-03-07T13:12:09.990Z,5.23
2018-03-07T13:15:13.452Z,5.43
2018-03-07T13:18:17.641Z,5.00
2018-03-07T13:21:21.920Z,4.87
2018-03-07T13:24:25.491Z,5.73
2018-03-07T13:27:29.710Z,4.40
2018-03-07T13:30:33.242Z,4.70
2018-03-07T13:33:37.408Z,4.73
2018-03-07T13:36:40.785Z,4.80
2018-03-07T13:39:44.275Z,4.90
2018-03-07T13:42:47.750Z,5.07
2018-03-07T13:45:51.957Z,4.43
2018-03-07T13:48:55.355Z,3.93
2018-03-07T13:51:58.782Z,4.03
2018-03-07T13:55:02.332Z,3.80
2018-03-07T13:58:05.788Z,4.03
2018-03-07T14:01:09.154Z,3.40
2018-03-07T14:04:13.477Z,3.57
2018-03-07T14:07:17.255Z,3.60
2018-03-07T14:10:20.678Z,4.00
2018-03-07T14:13:24.952Z,4.50
2018-03-07T14:16:28.382Z,3.70
2018-03-07T14:19:31.829Z,3.60
2018-03-07T14:22:35.347Z,4.00
2018-03-07T14:25:38.725Z,4.73
2018-03-07T14:28:42.907Z,4.67
2018-03-07T14:31:46.379Z,5.20
2018-03-07T14:34:49.844Z,4.57
2018-03-07T14:37:53.255Z,4.77
2018-03-07T14:40:56.787Z,4.80
2018-03-07T14:44:00.235Z,4.17
2018-03-07T14:47:04.556Z,4.70
2018-03-07T14:56:14.782Z,4.77
2018-03-07T15:12:24.915Z,4.07
2018-03-07T15:15:29.025Z,4.77
2018-03-07T15:18:32.389Z,4.77
2018-03-07T15:21:35.809Z,4.63
2018-03-07T15:24:40.202Z,4.40
2018-03-07T15:27:43.511Z,4.50
2018-03-07T15:30:46.969Z,4.30
2018-03-07T15:33:50.369Z,4.60
2018-03-07T15:36:54.411Z,4.57
2018-03-07T15:39:57.735Z,4.47
2018-03-07T15:43:01.174Z,4.23
2018-03-07T15:46:04.545Z,4.40
2018-03-07T15:49:08.675Z,5.40
2018-03-07T15:52:12.276Z,5.30
2018-03-07T15:55:16.384Z,5.07
2018-03-07T15:58:20.641Z,4.30
2018-03-07T16:01:24.003Z,3.63
2018-03-07T16:04:27.336Z,3.53
2018-03-07T16:07:30.693Z,3.20
2018-03-07T16:10:34.008Z,3.43
2018-03-07T16:13:38.352Z,3.43
2018-03-07T16:16:41.674Z,2.67
2018-03-07T16:19:45.064Z,3.28
2018-03-07T16:22:48.415Z,2.83
2018-03-07T16:25:51.898Z,3.00
2018-03-07T16:28:55.215Z,2.90
2018-03-07T16:31:59.346Z,2.97
2018-03-07T16:35:02.721Z,2.45
2018-03-07T16:38:06.195Z,2.53
2018-03-07T16:41:09.592Z,2.75
2018-03-07T16:44:12.951Z,2.35
2018-03-07T16:47:16.870Z,2.75
2018-03-07T16:50:20.178Z,2.67
2018-03-07T16:53:23.603Z,2.50
2018-03-07T16:56:26.968Z,2.97
2018-03-07T16:59:31.054Z,2.87
2018-03-07T17:02:34.492Z,2.83
2018-03-07T17:05:37.993Z,2.90
2018-03-07T17:08:42.167Z,2.42
2018-03-07T17:11:45.606Z,3.43
2018-03-07T17:14:48.948Z,3.00
2018-03-07T17:17:52.402Z,2.95
2018-03-07T17:20:55.842Z,3.97
2018-03-07T17:23:59.267Z,4.10
2018-03-07T17:27:03.082Z,5.00
2018-03-07T17:30:06.502Z,3.67
2018-03-07T17:33:10.121Z,3.85
2018-03-07T17:36:13.530Z,3.05
2018-03-07T17:39:17.743Z,3.33
2018-03-07T17:42:21.441Z,3.85
2018-03-07T17:45:24.989Z,3.92
2018-03-07T17:48:28.864Z,4.87
2018-03-07T17:51:33.043Z,3.40
2018-03-07T17:54:36.438Z,3.75
2018-03-07T17:57:40.561Z,3.35
2018-03-07T18:00:44.687Z,2.90
2018-03-07T18:03:48.821Z,3.20
2018-03-07T18:06:52.215Z,2.47
2018-03-07T18:09:55.519Z,2.83
2018-03-07T18:12:59.030Z,2.83
2018-03-07T18:16:02.510Z,2.72
2018-03-07T18:19:05.883Z,2.28
2018-03-07T18:22:09.354Z,2.37
2018-03-07T18:25:12.851Z,2.42
2018-03-07T18:28:16.188Z,1.98
2018-03-07T18:31:20.960Z,2.80
2018-03-07T18:34:24.339Z,3.72
2018-03-07T18:37:27.726Z,3.30
2018-03-07T18:40:31.054Z,3.58
2018-03-07T18:43:34.525Z,3.80
2018-03-07T18:46:37.961Z,3.22
2018-03-07T18:49:42.056Z,3.95
2018-03-07T18:52:45.435Z,4.32
2018-03-07T18:55:49.033Z,4.80
2018-03-07T18:58:52.342Z,3.28
2018-03-07T19:01:55.773Z,2.40
2018-03-07T19:04:59.198Z,3.67
2018-03-07T19:08:02.536Z,2.12
2018-03-07T19:11:06.658Z,4.03
2018-03-07T19:14:11.285Z,2.95
2018-03-07T19:17:14.748Z,3.17
2018-03-07T19:20:20.002Z,3.50
2018-03-07T19:23:23.493Z,2.83
2018-03-07T19:26:26.968Z,2.00
2018-03-07T19:29:30.326Z,1.90
2018-03-07T19:32:34.555Z,1.85
2018-03-07T19:35:37.988Z,2.05
2018-03-07T19:38:41.422Z,1.55
2018-03-07T19:41:45.630Z,2.55
2018-03-07T19:44:48.998Z,1.65
2018-03-07T19:47:52.371Z,1.83
2018-03-07T19:50:55.774Z,1.77
2018-03-07T19:53:59.222Z,1.95
2018-03-07T19:57:03.815Z,2.42
2018-03-07T20:00:09.118Z,1.77
2018-03-07T20:03:12.534Z,2.12
2018-03-07T20:06:16.103Z,2.33
2018-03-07T20:09:19.507Z,1.90
2018-03-07T20:12:23.092Z,2.03
2018-03-07T20:15:26.525Z,2.05
2018-03-07T20:18:30.729Z,1.92
2018-03-07T20:21:34.193Z,2.10
2018-03-07T20:24:37.550Z,2.12
2018-03-07T20:27:41.049Z,2.47
2018-03-07T20:30:44.424Z,2.72
2018-03-07T20:33:47.818Z,2.40
2018-03-07T20:36:52.063Z,3.10
2018-03-07T20:39:55.599Z,2.25
2018-03-07T20:42:59.090Z,2.28
2018-03-07T20:46:02.491Z,2.35
2018-03-07T20:49:05.949Z,3.10
2018-03-07T20:52:09.395Z,2.47
2018-03-07T20:55:13.102Z,2.78
2018-03-07T20:58:16.487Z,2.80
2018-03-07T21:01:19.908Z,3.22
2018-03-07T21:04:23.380Z,3.12
2018-03-07T21:07:26.701Z,3.10
2018-03-07T21:10:30.106Z,3.37
2018-03-07T21:13:33.474Z,3.22
2018-03-07T21:16:36.936Z,2.70
2018-03-07T21:19:40.340Z,3.35
2018-03-07T21:22:44.115Z,2.97
2018-03-07T21:25:47.644Z,3.47
2018-03-07T21:28:51.042Z,3.45
2018-03-07T21:31:54.565Z,2.87
2018-03-07T21:34:58.764Z,3.67
2018-03-07T21:38:02.221Z,3.12
2018-03-07T21:41:05.648Z,2.70
2018-03-07T21:44:09.182Z,3.33
2018-03-07T21:47:12.772Z,3.67
2018-03-07T21:50:16.118Z,3.67
2018-03-07T21:53:20.305Z,3.80
2018-03-07T21:56:23.683Z,3.47
2018-03-07T21:59:27.113Z,3.95
2018-03-07T22:02:31.303Z,3.85
2018-03-07T22:05:35.335Z,4.00
2018-03-07T22:08:38.878Z,4.10
2018-03-07T22:11:42.323Z,4.03
2018-03-07T22:14:46.540Z,4.05
2018-03-07T22:17:51.026Z,4.55
2018-03-07T22:20:54.411Z,4.37
2018-03-07T22:23:58.684Z,5.12
2018-03-07T22:27:03.267Z,5.20
2018-03-07T22:30:06.620Z,5.30
2018-03-07T22:33:10.345Z,5.40
2018-03-07T22:36:14.496Z,5.25
2018-03-07T22:39:17.831Z,5.25
2018-03-07T22:42:21.112Z,5.35
2018-03-07T22:45:24.413Z,6.50
2018-03-07T22:48:27.712Z,6.22
2018-03-07T22:51:31.238Z,5.90
2018-03-07T22:54:34.598Z,6.43
2018-03-07T22:57:38.054Z,6.40
2018-03-07T23:00:46.030Z,6.53
2018-03-07T23:03:49.462Z,6.82
2018-03-07T23:06:53.659Z,6.78
2018-03-07T23:09:57.835Z,6.82
2018-03-07T23:13:01.467Z,6.25
2018-03-07T23:16:04.881Z,6.53
2018-03-07T23:19:08.328Z,6.53
2018-03-07T23:22:11.795Z,7.57
2018-03-07T23:25:15.198Z,7.18
2018-03-07T23:28:18.534Z,6.15
2018-03-07T23:31:21.953Z,7.53
2018-03-07T23:34:25.292Z,6.70
2018-03-07T23:37:29.517Z,6.75
2018-03-07T23:40:32.901Z,6.85
2018-03-07T23:43:37.061Z,6.70
2018-03-07T23:46:40.687Z,6.12
2018-03-07T23:49:43.969Z,5.60
2018-03-07T23:52:47.462Z,6.10
2018-03-07T23:55:50.828Z,5.82
2018-03-07T23:58:54.204Z,5.82
